PATA/TAL METAR and TAF weather

Enter ICAO airport designator
Station Type Date Time Source
PATA METAR 2020/04/07 16:52 UTC NOAA

PATA 071652Z 05003KT 10SM SCT090 BKN110 M18/M21 A3008 RMK AO2 SLP196 T11831211


Station Type Date Time Source
PATA Decoded METAR 2020/04/07 16:52 UTC NOAA

TANANA CALHOUN MEMORIAL AIRPORT , AK, United States (PATA) 65-10N 152-06W 67M
Apr 07, 2020 - 12:52 PM EDT / 2020.04.07 1652 UTC
Wind: from the NE (050 degrees) at 3 MPH (3 KT):0
Visibility: 10 mile(s):0
Sky conditions: mostly cloudy
Temperature: -0.9 F (-18.3 C)
Dew Point: -6.0 F (-21.1 C)
Relative Humidity: 78%
Pressure (altimeter): 30.08 in. Hg (1018 hPa)
ob: PATA 071652Z 05003KT 10SM SCT090 BKN110 M18/M21 A3008 RMK AO2 SLP196 T11831211
cycle: 17

Station Type Date Time Source
PATA TAF 2020/04/07 18:40 UTC NOAA

TAF PATA 071738Z 0718/0818 VRB04KT P6SM SCT050 BKN100

Example: see airport list